Kostas — SW3504 — position and weather

sailwx.info

Track history (hours):
 
Tides and Currents Weather Stations Pressure Air Temp Water Temp Dewpoint Dewpoint Depression Visibility Wind Speed Wind Dir Waves Ship Positions

Kostas

Last reported at 2018-Jun-22 17:59 UTC. Time now 2018-Jun-25 01:45 UTC.
Position N 40°02' E 024°01'.

Length 22 m; draft 2.6 m.

Type: Fishing. MMSI: 239066000.

Date/timePositionNaut miles runAvg speedWind from/ knotsBaromVisibWave heightAir tempDewpointWater temp
2018-Jun-22 17:59N 40°02' E 024°01'2 3.1
2018-Jun-22 17:14N 40°05' E 024°00'  
2018-Jun-18 15:32N 40°14' E 023°44'0 0.0
2018-Jun-18 15:29N 40°14' E 023°44'0 0.0
2018-Jun-18 15:00N 40°14' E 023°44'0 0.0
2018-Jun-18 14:27N 40°14' E 023°44'0 0.0
2018-Jun-18 13:58N 40°14' E 023°44'0 0.0
2018-Jun-18 12:00N 40°14' E 023°44'  
2018-Jun-14 17:31N 40°15' E 023°44'0 5.7
2018-Jun-14 17:30N 40°15' E 023°44'1 1.1
2018-Jun-14 16:52N 40°14' E 023°44'0 0.0
2018-Jun-14 16:30N 40°14' E 023°44'0 0.0
2018-Jun-14 15:56N 40°14' E 023°44'2 0.1
2018-Jun-13 18:04N 40°16' E 023°43'1 7.0
2018-Jun-13 17:55N 40°15' E 023°44'1 2.0
2018-Jun-13 17:30N 40°14' E 023°44'0 0.0
2018-Jun-13 17:01N 40°14' E 023°44'0 0.0
2018-Jun-13 16:30N 40°14' E 023°44'0 0.0
2018-Jun-13 16:00N 40°14' E 023°44'0 0.0
2018-Jun-13 15:29N 40°14' E 023°44'0 0.0
2018-Jun-13 15:00N 40°14' E 023°44'0 0.0
2018-Jun-13 14:25N 40°14' E 023°44'0 0.0
2018-Jun-13 14:00N 40°14' E 023°44'0 0.0
2018-Jun-13 13:30N 40°14' E 023°44'0 0.0
2018-Jun-13 11:37N 40°14' E 023°44'0 0.0
2018-Jun-13 11:24N 40°14' E 023°44'0 0.0
2018-Jun-13 11:00N 40°14' E 023°44'0 0.0
2018-Jun-13 10:30N 40°14' E 023°44'0 0.0
2018-Jun-13 10:00N 40°14' E 023°44'0 0.0
2018-Jun-13 09:30N 40°14' E 023°44'0 0.0
2018-Jun-13 09:00N 40°14' E 023°44'0 0.0
2018-Jun-13 08:30N 40°14' E 023°44'0 0.0
2018-Jun-13 07:58N 40°14' E 023°44'0 0.0
2018-Jun-13 07:31N 40°14' E 023°44'0 0.0
2018-Jun-13 06:57N 40°14' E 023°44'0 0.0
2018-Jun-13 06:25N 40°14' E 023°44'0 0.0
2018-Jun-13 06:01N 40°14' E 023°44'0 0.0
2018-Jun-13 05:28N 40°14' E 023°44'0 0.0
2018-Jun-13 04:59N 40°14' E 023°44'0 0.0
2018-Jun-13 04:30N 40°14' E 023°44'0 0.0
2018-Jun-13 03:58N 40°14' E 023°44'0 0.0
2018-Jun-13 02:36N 40°14' E 023°44'0 0.0
2018-Jun-13 02:14N 40°14' E 023°44'0 0.0
2018-Jun-13 02:00N 40°14' E 023°44'0 0.0
2018-Jun-13 01:31N 40°14' E 023°44'0 0.0
2018-Jun-13 00:59N 40°14' E 023°44'0 0.0
2018-Jun-13 00:03N 40°14' E 023°44'0 0.0
2018-Jun-13 00:00N 40°14' E 023°44'  
Track history (hours):
 
Tides and Currents Weather Stations Pressure Air Temp Water Temp Dewpoint Dewpoint Depression Visibility Wind Speed Wind Dir Waves Ship Positions

Kostas

Last reported at 2018-Jun-22 17:59 UTC. Time now 2018-Jun-25 01:45 UTC.
Position N 40°02' E 024°01'.

Length 22 m; draft 2.6 m.

Type: Fishing. MMSI: 239066000.

Date/timePositionNaut miles runAvg speedWind from/ knotsBaromVisibWave heightAir tempDewpointWater temp
2018-Jun-22 17:59N 40°02' E 024°01'2 3.1
2018-Jun-22 17:14N 40°05' E 024°00'  
2018-Jun-18 15:32N 40°14' E 023°44'0 0.0
2018-Jun-18 15:29N 40°14' E 023°44'0 0.0
2018-Jun-18 15:00N 40°14' E 023°44'0 0.0
2018-Jun-18 14:27N 40°14' E 023°44'0 0.0
2018-Jun-18 13:58N 40°14' E 023°44'0 0.0
2018-Jun-18 12:00N 40°14' E 023°44'  
2018-Jun-14 17:31N 40°15' E 023°44'0 5.7
2018-Jun-14 17:30N 40°15' E 023°44'1 1.1
2018-Jun-14 16:52N 40°14' E 023°44'0 0.0
2018-Jun-14 16:30N 40°14' E 023°44'0 0.0
2018-Jun-14 15:56N 40°14' E 023°44'2 0.1
2018-Jun-13 18:04N 40°16' E 023°43'1 7.0
2018-Jun-13 17:55N 40°15' E 023°44'1 2.0
2018-Jun-13 17:30N 40°14' E 023°44'0 0.0
2018-Jun-13 17:01N 40°14' E 023°44'0 0.0
2018-Jun-13 16:30N 40°14' E 023°44'0 0.0
2018-Jun-13 16:00N 40°14' E 023°44'0 0.0
2018-Jun-13 15:29N 40°14' E 023°44'0 0.0
2018-Jun-13 15:00N 40°14' E 023°44'0 0.0
2018-Jun-13 14:25N 40°14' E 023°44'0 0.0
2018-Jun-13 14:00N 40°14' E 023°44'0 0.0
2018-Jun-13 13:30N 40°14' E 023°44'0 0.0
2018-Jun-13 11:37N 40°14' E 023°44'0 0.0
2018-Jun-13 11:24N 40°14' E 023°44'0 0.0
2018-Jun-13 11:00N 40°14' E 023°44'0 0.0
2018-Jun-13 10:30N 40°14' E 023°44'0 0.0
2018-Jun-13 10:00N 40°14' E 023°44'0 0.0
2018-Jun-13 09:30N 40°14' E 023°44'0 0.0
2018-Jun-13 09:00N 40°14' E 023°44'0 0.0
2018-Jun-13 08:30N 40°14' E 023°44'0 0.0
2018-Jun-13 07:58N 40°14' E 023°44'0 0.0
2018-Jun-13 07:31N 40°14' E 023°44'0 0.0
2018-Jun-13 06:57N 40°14' E 023°44'0 0.0
2018-Jun-13 06:25N 40°14' E 023°44'0 0.0
2018-Jun-13 06:01N 40°14' E 023°44'0 0.0
2018-Jun-13 05:28N 40°14' E 023°44'0 0.0
2018-Jun-13 04:59N 40°14' E 023°44'0 0.0
2018-Jun-13 04:30N 40°14' E 023°44'0 0.0
2018-Jun-13 03:58N 40°14' E 023°44'0 0.0
2018-Jun-13 02:36N 40°14' E 023°44'0 0.0
2018-Jun-13 02:14N 40°14' E 023°44'0 0.0
2018-Jun-13 02:00N 40°14' E 023°44'0 0.0
2018-Jun-13 01:31N 40°14' E 023°44'0 0.0
2018-Jun-13 00:59N 40°14' E 023°44'0 0.0
2018-Jun-13 00:03N 40°14' E 023°44'0 0.0
2018-Jun-13 00:00N 40°14' E 023°44'  

Dump ship's entire track history